createdAt,value
2023-02-17T00:00:36.397Z,10.01
2023-02-17T00:01:38.669Z,10.10
2023-02-17T00:02:40.984Z,10.11
2023-02-17T00:03:43.267Z,10.09
2023-02-17T00:04:45.497Z,10.05
2023-02-17T00:05:49.406Z,10.03
2023-02-17T00:06:53.340Z,10.03
2023-02-17T00:07:55.598Z,10.05
2023-02-17T00:08:59.650Z,9.97
2023-02-17T00:10:02.100Z,10.01
2023-02-17T00:11:04.613Z,10.08
2023-02-17T00:12:07.401Z,10.10
2023-02-17T00:13:09.830Z,10.09
2023-02-17T00:14:13.383Z,10.09
2023-02-17T00:15:15.579Z,10.20
2023-02-17T00:16:21.271Z,10.17
2023-02-17T00:17:23.530Z,10.22
2023-02-17T00:18:25.934Z,10.32
2023-02-17T00:19:28.244Z,10.40
2023-02-17T00:20:30.567Z,10.32
2023-02-17T00:21:32.795Z,10.36
2023-02-17T00:22:35.962Z,10.33
2023-02-17T00:23:38.150Z,10.30
2023-02-17T00:24:41.341Z,10.28
2023-02-17T00:25:44.097Z,10.32
2023-02-17T00:26:46.504Z,10.35
2023-02-17T00:27:48.741Z,10.32
2023-02-17T00:28:51.073Z,10.37
2023-02-17T00:29:53.263Z,10.32
2023-02-17T00:30:55.577Z,10.29
2023-02-17T00:31:57.930Z,10.37
2023-02-17T00:33:00.282Z,10.40
2023-02-17T00:34:02.492Z,10.42
2023-02-17T00:35:06.665Z,10.50
2023-02-17T00:36:18.396Z,10.43
2023-02-17T00:37:20.761Z,10.33
2023-02-17T00:38:23.007Z,10.23
2023-02-17T00:39:25.646Z,10.21
2023-02-17T00:40:28.329Z,10.27
2023-02-17T00:41:30.937Z,10.38
2023-02-17T00:42:33.143Z,10.34
2023-02-17T00:43:35.483Z,10.32
2023-02-17T00:44:37.694Z,10.35
2023-02-17T00:45:39.856Z,10.46
2023-02-17T00:46:42.131Z,10.42
2023-02-17T00:47:44.502Z,10.42
2023-02-17T00:48:48.068Z,10.44
2023-02-17T00:49:50.335Z,10.43
2023-02-17T00:50:52.668Z,10.36
2023-02-17T00:51:54.932Z,10.34
2023-02-17T00:52:57.097Z,10.39
2023-02-17T00:53:59.292Z,10.40
2023-02-17T00:55:01.595Z,10.32
2023-02-17T00:56:05.566Z,10.29
2023-02-17T00:57:07.902Z,10.30
2023-02-17T00:58:10.520Z,10.27
2023-02-17T00:59:13.239Z,10.25
2023-02-17T01:00:16.413Z,10.30
2023-02-17T01:01:18.755Z,10.33
2023-02-17T01:02:21.264Z,10.34
2023-02-17T01:03:24.470Z,10.37
2023-02-17T01:04:27.023Z,10.36
2023-02-17T01:05:29.410Z,10.22
2023-02-17T01:06:34.404Z,10.44
2023-02-17T01:07:37.232Z,10.38
2023-02-17T01:08:39.443Z,10.32
2023-02-17T01:09:41.700Z,10.33
2023-02-17T01:10:46.297Z,10.37
2023-02-17T01:11:48.595Z,10.29
2023-02-17T01:12:51.001Z,10.34
2023-02-17T01:13:54.304Z,10.29
2023-02-17T01:14:56.566Z,10.19
2023-02-17T01:15:59.304Z,10.19
2023-02-17T01:17:01.711Z,10.22
2023-02-17T01:18:04.428Z,10.24
2023-02-17T01:19:09.445Z,10.32
2023-02-17T01:20:12.626Z,10.37
2023-02-17T01:21:23.645Z,10.32
2023-02-17T01:22:25.900Z,10.53
2023-02-17T01:23:30.154Z,10.51
2023-02-17T01:24:32.407Z,10.54
2023-02-17T01:25:42.786Z,10.48
2023-02-17T01:26:45.275Z,10.40
2023-02-17T01:27:47.543Z,10.35
2023-02-17T01:28:50.939Z,10.36
2023-02-17T01:29:53.195Z,10.23
2023-02-17T01:30:55.554Z,10.16
2023-02-17T01:31:57.861Z,10.28
2023-02-17T01:33:02.722Z,10.37
2023-02-17T01:34:05.009Z,10.44
2023-02-17T01:35:07.568Z,10.55
2023-02-17T01:36:13.620Z,10.62
2023-02-17T01:37:15.886Z,10.48
2023-02-17T01:38:18.036Z,10.38
2023-02-17T01:39:20.283Z,10.38
2023-02-17T01:40:22.796Z,10.42
2023-02-17T01:41:27.091Z,10.44
2023-02-17T01:42:29.338Z,10.43
2023-02-17T01:43:31.715Z,10.35
2023-02-17T01:44:33.971Z,10.49
2023-02-17T01:45:50.470Z,10.42
2023-02-17T01:46:56.195Z,10.43
2023-02-17T01:48:14.330Z,10.43
2023-02-17T01:49:22.459Z,10.31
2023-02-17T01:50:46.862Z,10.31
2023-02-17T01:51:54.664Z,10.27
2023-02-17T01:52:58.389Z,10.25
2023-02-17T01:54:06.152Z,10.33
2023-02-17T01:55:13.038Z,10.43
2023-02-17T01:56:17.278Z,10.34
2023-02-17T01:57:23.286Z,10.31
2023-02-17T01:58:26.882Z,10.38
2023-02-17T01:59:30.819Z,10.40
2023-02-17T02:02:08.873Z,10.26
2023-02-17T02:03:13.917Z,10.40
2023-02-17T02:04:20.671Z,10.45
2023-02-17T02:05:23.180Z,10.37
2023-02-17T02:06:28.822Z,10.41
2023-02-17T02:07:34.858Z,10.33
2023-02-17T02:08:54.777Z,10.27
2023-02-17T02:09:59.117Z,10.34
2023-02-17T02:11:02.464Z,10.33
2023-02-17T02:12:17.814Z,10.39
2023-02-17T02:13:21.218Z,10.29
2023-02-17T02:14:23.551Z,10.31
2023-02-17T02:15:32.342Z,10.41
2023-02-17T02:16:34.593Z,10.49
2023-02-17T02:18:03.856Z,10.47
2023-02-17T02:19:43.570Z,10.48
2023-02-17T02:21:08.550Z,10.46
2023-02-17T02:22:32.210Z,10.46
2023-02-17T02:23:49.787Z,10.47
2023-02-17T02:25:18.032Z,10.35
2023-02-17T02:26:48.556Z,10.46
2023-02-17T02:28:19.262Z,10.48
2023-02-17T02:29:51.542Z,10.48
2023-02-17T02:31:08.720Z,10.39
2023-02-17T02:32:39.297Z,10.44
2023-02-17T02:34:08.970Z,10.51
2023-02-17T02:35:43.489Z,10.56
2023-02-17T02:36:56.554Z,10.45
2023-02-17T02:38:19.922Z,10.44
2023-02-17T02:39:27.936Z,10.42
2023-02-17T02:40:36.354Z,10.42
2023-02-17T02:41:44.028Z,10.52
2023-02-17T02:42:49.481Z,10.43
2023-02-17T02:43:52.281Z,10.32
2023-02-17T02:44:54.573Z,10.40
2023-02-17T02:45:56.806Z,10.46
2023-02-17T02:47:18.692Z,10.46
2023-02-17T02:48:21.064Z,10.48
2023-02-17T02:49:23.650Z,10.44
2023-02-17T02:50:47.920Z,10.41
2023-02-17T02:52:26.692Z,10.39
2023-02-17T02:53:48.219Z,10.45
2023-02-17T02:55:05.222Z,10.33
2023-02-17T02:56:38.788Z,10.24
2023-02-17T02:57:49.288Z,10.21
2023-02-17T02:58:57.483Z,10.24
2023-02-17T03:00:24.728Z,10.31
2023-02-17T03:01:50.557Z,10.32
2023-02-17T03:03:04.381Z,10.36
2023-02-17T03:04:14.295Z,10.37
2023-02-17T03:05:28.949Z,10.25
2023-02-17T03:06:51.666Z,10.29
2023-02-17T03:08:03.678Z,10.37
2023-02-17T03:09:14.333Z,10.42
2023-02-17T03:10:17.144Z,10.28
2023-02-17T03:11:32.347Z,10.25
2023-02-17T03:12:38.402Z,10.21
2023-02-17T03:13:41.203Z,10.21
2023-02-17T03:14:49.509Z,10.13
2023-02-17T03:15:52.729Z,10.25
2023-02-17T03:16:55.439Z,10.16
2023-02-17T03:18:01.217Z,10.17
2023-02-17T03:19:04.577Z,10.10
2023-02-17T03:20:08.392Z,10.10
2023-02-17T03:21:17.222Z,10.10
2023-02-17T03:22:31.660Z,10.11
2023-02-17T03:23:33.911Z,10.10
2023-02-17T03:24:36.880Z,10.06
2023-02-17T03:25:41.953Z,10.08
2023-02-17T03:26:44.190Z,10.00
2023-02-17T03:27:46.517Z,10.02
2023-02-17T03:28:50.096Z,10.06
2023-02-17T03:29:52.661Z,10.02
2023-02-17T03:30:56.062Z,10.00
2023-02-17T03:31:58.380Z,9.97
2023-02-17T03:33:00.639Z,10.13
2023-02-17T03:34:03.567Z,10.05
2023-02-17T03:35:05.943Z,10.10
2023-02-17T03:36:08.485Z,10.06
2023-02-17T03:37:10.717Z,10.07
2023-02-17T03:38:12.999Z,10.18
2023-02-17T03:39:15.295Z,10.05
2023-02-17T03:40:17.652Z,10.03
2023-02-17T03:41:20.155Z,10.10
2023-02-17T03:42:22.752Z,10.07
2023-02-17T03:43:24.949Z,10.01
2023-02-17T03:44:27.204Z,9.96
2023-02-17T03:45:29.527Z,9.99
2023-02-17T03:46:31.849Z,10.01
2023-02-17T03:47:34.044Z,9.99
2023-02-17T03:48:36.228Z,10.03
2023-02-17T03:49:38.453Z,10.00
2023-02-17T03:50:40.767Z,10.02
2023-02-17T03:51:42.972Z,10.00
2023-02-17T03:52:45.922Z,10.00
2023-02-17T03:53:49.032Z,10.03
2023-02-17T03:54:52.549Z,10.07
2023-02-17T03:55:54.872Z,10.09
2023-02-17T03:56:57.131Z,10.14
2023-02-17T03:57:59.536Z,10.03
2023-02-17T03:59:01.707Z,10.15
2023-02-17T04:00:05.837Z,10.06
2023-02-17T04:01:15.334Z,10.04
2023-02-17T04:02:17.563Z,9.95
2023-02-17T04:03:19.748Z,10.02
2023-02-17T04:04:22.039Z,10.02
2023-02-17T04:05:24.627Z,10.09
2023-02-17T04:06:27.236Z,10.08
2023-02-17T04:07:29.549Z,10.05
2023-02-17T04:08:32.544Z,9.97
2023-02-17T04:09:34.732Z,9.93
2023-02-17T04:10:37.140Z,9.86
2023-02-17T04:11:39.417Z,9.86
2023-02-17T04:12:41.587Z,9.88
2023-02-17T04:13:43.823Z,9.91
2023-02-17T04:14:46.160Z,9.83
2023-02-17T04:15:48.962Z,9.91
2023-02-17T04:16:51.258Z,9.86
2023-02-17T04:17:53.473Z,9.89
2023-02-17T04:18:55.722Z,9.90
2023-02-17T04:19:57.978Z,9.85
2023-02-17T04:21:00.316Z,9.87
2023-02-17T04:22:02.547Z,9.85
2023-02-17T04:23:04.948Z,9.90
2023-02-17T04:24:07.157Z,9.82
2023-02-17T04:25:09.508Z,9.81
2023-02-17T04:26:11.758Z,9.89
2023-02-17T04:27:14.031Z,9.83
2023-02-17T04:28:17.060Z,9.81
2023-02-17T04:29:19.270Z,9.84
2023-02-17T04:30:21.678Z,9.89
2023-02-17T04:31:25.880Z,9.96
2023-02-17T04:32:28.355Z,9.89
2023-02-17T04:33:30.907Z,9.86
2023-02-17T04:34:33.127Z,9.93
2023-02-17T04:35:35.501Z,9.91
2023-02-17T04:36:37.773Z,9.96
2023-02-17T04:37:40.016Z,9.99
2023-02-17T04:38:42.357Z,9.99
2023-02-17T04:39:44.630Z,9.96
2023-02-17T04:40:46.984Z,9.96
2023-02-17T04:41:49.346Z,10.01
2023-02-17T04:42:51.574Z,9.93
2023-02-17T04:43:53.831Z,9.84
2023-02-17T04:44:56.018Z,9.87
2023-02-17T04:45:58.531Z,10.00
2023-02-17T04:47:00.750Z,10.10
2023-02-17T04:48:03.007Z,10.15
2023-02-17T04:49:05.224Z,10.05
2023-02-17T04:50:09.977Z,10.02
2023-02-17T04:51:12.161Z,10.05
2023-02-17T04:52:14.345Z,10.04
2023-02-17T04:53:16.683Z,10.02
2023-02-17T04:54:18.922Z,10.11
2023-02-17T04:55:21.199Z,10.10
2023-02-17T04:56:23.581Z,10.05
2023-02-17T04:57:26.278Z,10.01
2023-02-17T04:58:28.603Z,10.11
2023-02-17T04:59:30.766Z,10.12
2023-02-17T05:00:33.156Z,10.17
2023-02-17T05:01:35.390Z,10.10
2023-02-17T05:02:37.634Z,10.11
2023-02-17T05:03:40.078Z,10.06
2023-02-17T05:04:43.974Z,10.08
2023-02-17T05:05:47.930Z,10.11
2023-02-17T05:06:50.314Z,10.11
2023-02-17T05:07:52.511Z,10.24
2023-02-17T05:08:54.856Z,10.07
2023-02-17T05:09:57.073Z,10.13
2023-02-17T05:10:59.295Z,10.14
2023-02-17T05:12:03.029Z,10.07
2023-02-17T05:13:05.259Z,10.06
2023-02-17T05:14:07.582Z,10.15
2023-02-17T05:15:10.508Z,10.15
2023-02-17T05:16:12.880Z,10.03
2023-02-17T05:17:15.239Z,10.03
2023-02-17T05:18:17.435Z,10.00
2023-02-17T05:19:19.717Z,10.19
2023-02-17T05:20:22.028Z,10.29
2023-02-17T05:21:24.348Z,10.30
2023-02-17T05:22:27.361Z,10.22
2023-02-17T05:23:29.552Z,10.29
2023-02-17T05:24:31.984Z,10.24
2023-02-17T05:25:34.181Z,10.24
2023-02-17T05:26:36.380Z,10.23
2023-02-17T05:27:38.554Z,10.15
2023-02-17T05:28:40.771Z,10.17
2023-02-17T05:29:42.970Z,10.17
2023-02-17T05:30:45.165Z,10.19
2023-02-17T05:31:47.437Z,10.18
2023-02-17T05:32:49.730Z,10.10
2023-02-17T05:33:54.022Z,10.18
2023-02-17T05:34:56.158Z,10.17
2023-02-17T05:36:03.660Z,10.08
2023-02-17T05:37:05.954Z,10.09
2023-02-17T05:38:08.233Z,10.16
2023-02-17T05:39:10.540Z,10.15
2023-02-17T05:40:13.028Z,10.24
2023-02-17T05:41:18.788Z,10.31
2023-02-17T05:42:21.154Z,10.36
2023-02-17T05:43:23.742Z,10.24
2023-02-17T05:44:25.972Z,10.25
2023-02-17T05:45:28.256Z,10.23
2023-02-17T05:46:30.527Z,10.26
2023-02-17T05:47:32.770Z,10.27
2023-02-17T05:48:35.054Z,10.22
2023-02-17T05:49:37.399Z,10.25
2023-02-17T05:50:39.564Z,10.20
2023-02-17T05:51:41.816Z,10.20
2023-02-17T05:52:44.095Z,10.19
2023-02-17T05:53:46.285Z,10.24
2023-02-17T05:54:48.455Z,10.23
2023-02-17T05:55:51.500Z,10.29
2023-02-17T05:56:54.960Z,10.21
2023-02-17T05:57:57.174Z,10.27
2023-02-17T05:59:00.453Z,10.14
2023-02-17T06:00:04.352Z,10.08
2023-02-17T06:01:14.341Z,10.11
2023-02-17T06:02:16.572Z,10.21
2023-02-17T06:03:19.196Z,10.23
2023-02-17T06:04:21.893Z,10.15
2023-02-17T06:05:24.165Z,10.14
2023-02-17T06:06:26.516Z,10.11
2023-02-17T06:07:28.759Z,10.14
2023-02-17T06:08:31.217Z,10.00
2023-02-17T06:09:33.439Z,9.91
2023-02-17T06:10:37.467Z,9.88
2023-02-17T06:11:42.008Z,9.83
2023-02-17T06:12:44.216Z,9.82
2023-02-17T06:13:46.493Z,9.75
2023-02-17T06:14:48.699Z,9.86
2023-02-17T06:15:51.327Z,9.79
2023-02-17T06:16:55.799Z,9.75
2023-02-17T06:17:58.090Z,9.77
2023-02-17T06:19:05.073Z,9.72
2023-02-17T06:20:10.526Z,9.71
2023-02-17T06:21:12.786Z,9.75
2023-02-17T06:22:17.219Z,9.86
2023-02-17T06:23:20.565Z,9.87
2023-02-17T06:24:23.306Z,9.82
2023-02-17T06:25:25.473Z,9.82
2023-02-17T06:26:27.689Z,9.75
2023-02-17T06:27:29.962Z,9.78
2023-02-17T06:28:34.763Z,9.81
2023-02-17T06:29:37.258Z,9.76
2023-02-17T06:30:39.516Z,9.76
2023-02-17T06:31:41.775Z,9.75
2023-02-17T06:32:44.256Z,9.89
2023-02-17T06:33:46.655Z,9.87
2023-02-17T06:34:48.868Z,9.87
2023-02-17T06:35:51.912Z,9.78
2023-02-17T06:36:54.627Z,9.74
2023-02-17T06:37:57.069Z,9.82
2023-02-17T06:38:59.273Z,9.96
2023-02-17T06:40:01.719Z,9.83
2023-02-17T06:41:04.211Z,9.86
2023-02-17T06:42:06.467Z,9.90
2023-02-17T06:43:08.759Z,9.88
2023-02-17T06:44:11.210Z,9.80
2023-02-17T06:45:13.530Z,9.81
2023-02-17T06:46:15.737Z,9.84
2023-02-17T06:47:17.963Z,9.84
2023-02-17T06:48:20.155Z,9.80
2023-02-17T06:49:22.470Z,9.82
2023-02-17T06:50:24.712Z,9.85
2023-02-17T06:51:28.169Z,9.92
2023-02-17T06:52:30.577Z,10.04
2023-02-17T06:53:32.773Z,9.97
2023-02-17T06:54:35.042Z,9.92
2023-02-17T06:55:38.958Z,9.90
2023-02-17T06:56:41.215Z,9.89
2023-02-17T06:57:43.515Z,9.85
2023-02-17T06:58:45.756Z,9.81
2023-02-17T06:59:47.951Z,9.79
2023-02-17T07:00:51.009Z,9.76
2023-02-17T07:01:53.324Z,9.78
2023-02-17T07:02:55.742Z,9.76
2023-02-17T07:03:58.047Z,9.77
2023-02-17T07:05:00.245Z,9.85
2023-02-17T07:06:02.440Z,9.95
2023-02-17T07:07:04.997Z,9.89
2023-02-17T07:08:07.244Z,9.87
2023-02-17T07:09:13.381Z,9.74
2023-02-17T07:10:15.669Z,9.81
2023-02-17T07:11:18.294Z,9.86
2023-02-17T07:12:20.496Z,9.81
2023-02-17T07:13:22.682Z,9.77
2023-02-17T07:14:26.381Z,9.79
2023-02-17T07:15:28.713Z,9.79
2023-02-17T07:16:31.176Z,9.68
2023-02-17T07:17:33.400Z,9.76
2023-02-17T07:18:36.385Z,9.70
2023-02-17T07:19:38.597Z,9.74
2023-02-17T07:20:40.903Z,9.75
2023-02-17T07:21:44.055Z,9.75
2023-02-17T07:22:46.463Z,9.79
2023-02-17T07:23:48.894Z,9.82
2023-02-17T07:24:51.258Z,9.86
2023-02-17T07:25:53.464Z,9.83
2023-02-17T07:26:56.233Z,9.99
2023-02-17T07:27:59.727Z,9.98
2023-02-17T07:29:02.090Z,10.03
2023-02-17T07:30:05.643Z,9.95
2023-02-17T07:31:13.304Z,9.94
2023-02-17T07:32:15.565Z,10.09
2023-02-17T07:33:17.821Z,10.11
2023-02-17T07:34:20.197Z,10.18
2023-02-17T07:35:22.373Z,10.12
2023-02-17T07:36:24.682Z,10.09
2023-02-17T07:37:26.913Z,10.06
2023-02-17T07:38:29.214Z,10.15
2023-02-17T07:39:31.493Z,10.11
2023-02-17T07:40:34.068Z,10.07
2023-02-17T07:41:36.334Z,10.04
2023-02-17T07:42:44.252Z,10.10
2023-02-17T07:43:47.903Z,10.09
2023-02-17T07:44:52.066Z,10.15
2023-02-17T07:45:54.963Z,10.19
2023-02-17T07:46:57.793Z,10.10
2023-02-17T07:48:00.040Z,10.20
2023-02-17T07:49:02.500Z,10.17
2023-02-17T07:50:05.614Z,10.15
2023-02-17T07:51:10.758Z,10.16
2023-02-17T07:52:13.046Z,10.29
2023-02-17T07:53:15.228Z,10.35
2023-02-17T07:54:18.834Z,10.33
2023-02-17T07:55:20.990Z,10.30
2023-02-17T07:56:24.103Z,10.32
2023-02-17T07:57:26.395Z,10.36
2023-02-17T07:58:28.621Z,10.39
2023-02-17T07:59:30.803Z,10.49
2023-02-17T08:00:32.994Z,10.44
2023-02-17T08:01:35.203Z,10.34
2023-02-17T08:02:37.454Z,10.49
2023-02-17T08:03:39.665Z,10.59
2023-02-17T08:04:42.514Z,10.59
2023-02-17T08:05:44.781Z,10.52
2023-02-17T08:06:46.971Z,10.46
2023-02-17T08:08:09.285Z,10.37
2023-02-17T08:09:30.296Z,10.35
2023-02-17T08:10:51.367Z,10.48
2023-02-17T08:12:12.015Z,10.44
2023-02-17T08:13:19.944Z,10.24
2023-02-17T08:14:23.594Z,10.30
2023-02-17T08:15:25.810Z,10.40
2023-02-17T08:16:28.312Z,10.37
2023-02-17T08:17:30.568Z,10.27
2023-02-17T08:18:36.501Z,10.24
2023-02-17T08:19:48.065Z,10.40
2023-02-17T08:20:51.437Z,10.30
2023-02-17T08:21:54.029Z,10.20
2023-02-17T08:22:56.234Z,10.27
2023-02-17T08:23:58.534Z,10.18
2023-02-17T08:25:00.823Z,10.21
2023-02-17T08:26:03.031Z,10.23
2023-02-17T08:27:06.171Z,10.18
2023-02-17T08:28:08.385Z,10.12
2023-02-17T08:29:10.728Z,10.09
2023-02-17T08:30:13.369Z,10.10
2023-02-17T08:31:21.486Z,10.12
2023-02-17T08:32:24.058Z,10.23
2023-02-17T08:33:26.302Z,10.14
2023-02-17T08:34:28.742Z,10.20
2023-02-17T08:35:31.167Z,10.23
2023-02-17T08:36:34.045Z,10.15
2023-02-17T08:37:36.255Z,10.20
2023-02-17T08:38:39.404Z,10.16
2023-02-17T08:39:41.661Z,10.13
2023-02-17T08:40:43.960Z,10.22
2023-02-17T08:41:46.746Z,10.31
2023-02-17T08:42:49.014Z,10.19
2023-02-17T08:43:52.074Z,10.21
2023-02-17T08:44:54.880Z,10.36
2023-02-17T08:45:57.210Z,10.24
2023-02-17T08:46:59.507Z,10.35
2023-02-17T08:48:01.819Z,10.27
2023-02-17T08:49:05.605Z,10.29
2023-02-17T08:50:09.375Z,10.36
2023-02-17T08:51:16.191Z,10.29
2023-02-17T08:52:18.875Z,10.38
2023-02-17T08:53:21.146Z,10.50
2023-02-17T08:54:23.426Z,10.64
2023-02-17T08:55:25.774Z,10.73
2023-02-17T08:56:28.592Z,10.76
2023-02-17T08:57:30.807Z,10.77
2023-02-17T08:58:33.380Z,10.93
2023-02-17T08:59:35.592Z,10.86
2023-02-17T09:00:37.797Z,10.93
2023-02-17T09:01:41.150Z,10.95
2023-02-17T09:02:45.135Z,10.84
2023-02-17T09:03:49.875Z,10.95
2023-02-17T09:04:52.262Z,10.93
2023-02-17T09:05:58.147Z,10.90
2023-02-17T09:07:00.514Z,10.95
2023-02-17T09:08:03.990Z,10.87
2023-02-17T09:09:08.004Z,11.02
2023-02-17T09:10:11.629Z,11.02
2023-02-17T09:11:17.010Z,11.16
2023-02-17T09:12:19.293Z,11.17
2023-02-17T09:13:21.907Z,11.11
2023-02-17T09:14:25.250Z,11.12
2023-02-17T09:15:27.894Z,11.29
2023-02-17T09:16:30.839Z,11.30
2023-02-17T09:17:33.441Z,11.30
2023-02-17T09:18:36.313Z,11.38
2023-02-17T09:19:40.923Z,11.36
2023-02-17T09:20:43.533Z,11.23
2023-02-17T09:21:46.281Z,11.16
2023-02-17T09:22:50.364Z,11.08
2023-02-17T09:23:54.073Z,11.14
2023-02-17T09:24:57.014Z,11.30
2023-02-17T09:26:11.070Z,11.22
2023-02-17T09:27:14.198Z,11.24
2023-02-17T09:28:17.098Z,11.26
2023-02-17T09:29:19.638Z,11.32
2023-02-17T09:30:22.192Z,11.11
2023-02-17T09:31:26.754Z,10.95
2023-02-17T09:32:29.446Z,11.07
2023-02-17T09:33:31.894Z,11.04
2023-02-17T09:34:37.348Z,11.04
2023-02-17T09:35:39.588Z,11.12
2023-02-17T09:36:42.416Z,11.26
2023-02-17T09:37:44.891Z,11.16
2023-02-17T09:38:48.672Z,11.27
2023-02-17T09:39:51.017Z,11.30
2023-02-17T09:40:53.308Z,11.46
2023-02-17T09:41:56.562Z,11.69
2023-02-17T09:42:59.025Z,11.58
2023-02-17T09:44:01.957Z,11.72
2023-02-17T09:45:14.400Z,11.71
2023-02-17T09:46:24.463Z,11.63
2023-02-17T09:47:36.204Z,11.63
2023-02-17T09:48:41.344Z,11.54
2023-02-17T09:49:48.065Z,11.44
2023-02-17T09:51:10.049Z,11.59
2023-02-17T09:52:35.958Z,11.68
2023-02-17T09:53:52.406Z,11.86
2023-02-17T09:55:40.704Z,11.66
2023-02-17T09:56:47.389Z,11.42
2023-02-17T09:58:02.407Z,11.44
2023-02-17T09:59:24.368Z,11.59
2023-02-17T10:00:35.274Z,11.71
2023-02-17T10:01:38.355Z,11.67
2023-02-17T10:02:55.989Z,11.58
2023-02-17T10:04:14.273Z,11.58
2023-02-17T10:05:20.262Z,11.68
2023-02-17T10:06:36.910Z,11.50
2023-02-17T10:07:46.099Z,11.51
2023-02-17T10:08:56.808Z,11.44
2023-02-17T10:10:07.994Z,11.56
2023-02-17T10:11:31.688Z,11.60
2023-02-17T10:12:41.219Z,11.59
2023-02-17T10:13:46.419Z,11.70
2023-02-17T10:14:57.460Z,11.85
2023-02-17T10:16:07.038Z,11.81
2023-02-17T10:17:34.228Z,11.94
2023-02-17T10:18:41.523Z,11.65
2023-02-17T10:20:14.862Z,11.70
2023-02-17T10:21:27.259Z,11.61
2023-02-17T10:22:31.616Z,11.55
2023-02-17T10:23:34.995Z,11.59
2023-02-17T10:24:37.256Z,11.84
2023-02-17T10:26:10.217Z,11.90
2023-02-17T10:27:15.327Z,11.97
2023-02-17T10:28:29.248Z,11.99
2023-02-17T10:29:41.679Z,12.15
2023-02-17T10:31:08.495Z,12.07
2023-02-17T10:32:22.207Z,11.87
2023-02-17T10:33:37.898Z,11.95
2023-02-17T10:34:53.326Z,11.73
2023-02-17T10:36:32.816Z,11.87
2023-02-17T10:37:51.436Z,11.90
2023-02-17T10:39:01.783Z,11.83
2023-02-17T10:40:20.373Z,11.88
2023-02-17T10:41:32.674Z,11.70
2023-02-17T10:42:38.045Z,11.71
2023-02-17T10:43:42.932Z,11.87
2023-02-17T10:44:45.269Z,12.11
2023-02-17T10:45:49.824Z,12.19
2023-02-17T10:46:54.182Z,12.23
2023-02-17T10:48:03.263Z,12.16
2023-02-17T10:49:07.221Z,12.02
2023-02-17T10:50:22.482Z,12.25
2023-02-17T10:51:31.670Z,12.34
2023-02-17T10:52:39.173Z,12.06
2023-02-17T10:53:44.296Z,12.25
2023-02-17T10:55:22.848Z,12.19
2023-02-17T10:56:32.515Z,12.23
2023-02-17T10:57:40.508Z,12.29
2023-02-17T10:59:06.545Z,12.26
2023-02-17T11:00:15.973Z,12.32
2023-02-17T11:01:18.442Z,12.17
2023-02-17T11:02:44.899Z,12.27
2023-02-17T11:03:47.239Z,12.09
2023-02-17T11:04:54.872Z,12.15
2023-02-17T11:06:01.789Z,12.30
2023-02-17T11:07:12.011Z,12.19
2023-02-17T11:08:34.985Z,12.09
2023-02-17T11:09:39.685Z,12.19
2023-02-17T11:10:41.887Z,12.07
2023-02-17T11:11:57.023Z,12.25
2023-02-17T11:13:02.556Z,12.16
2023-02-17T11:14:17.670Z,12.09
2023-02-17T11:15:22.674Z,12.19
2023-02-17T11:16:33.186Z,12.20
2023-02-17T11:17:38.619Z,12.09
2023-02-17T11:18:47.963Z,12.18
2023-02-17T11:20:04.944Z,12.21
2023-02-17T11:21:11.190Z,12.14
2023-02-17T11:22:35.785Z,12.14
2023-02-17T11:24:01.835Z,12.30
2023-02-17T11:25:24.413Z,12.49
2023-02-17T11:26:30.407Z,12.24
2023-02-17T11:27:32.674Z,12.31
2023-02-17T11:28:35.218Z,12.35
2023-02-17T11:29:37.984Z,12.29
2023-02-17T11:30:49.768Z,12.57
2023-02-17T11:31:59.273Z,12.71
2023-02-17T11:33:15.874Z,12.68
2023-02-17T11:34:23.199Z,12.74
2023-02-17T11:35:30.323Z,12.91
2023-02-17T11:36:32.581Z,13.25
2023-02-17T11:37:42.442Z,13.14
2023-02-17T11:38:45.894Z,12.98
2023-02-17T11:39:50.707Z,13.07
2023-02-17T11:41:04.562Z,13.08
2023-02-17T11:42:25.085Z,12.84
2023-02-17T11:43:29.760Z,12.73
2023-02-17T11:44:31.932Z,12.79
2023-02-17T11:45:49.894Z,12.74
2023-02-17T11:47:04.169Z,12.78
2023-02-17T11:48:44.120Z,12.86
2023-02-17T11:50:01.830Z,12.68
2023-02-17T11:51:19.073Z,12.64
2023-02-17T11:52:45.743Z,12.76
2023-02-17T11:54:12.657Z,12.77
2023-02-17T11:55:34.601Z,12.59
2023-02-17T11:56:43.967Z,12.85
2023-02-17T11:58:07.327Z,12.78
2023-02-17T11:59:35.736Z,12.45
2023-02-17T12:00:43.720Z,12.57
2023-02-17T12:02:08.897Z,12.70
2023-02-17T12:03:36.912Z,12.53
2023-02-17T12:04:48.951Z,12.36
2023-02-17T12:05:51.136Z,12.38
2023-02-17T12:07:08.195Z,12.30
2023-02-17T12:08:22.390Z,12.38
2023-02-17T12:09:56.345Z,12.59
2023-02-17T12:11:16.645Z,12.46
2023-02-17T12:12:46.035Z,12.38
2023-02-17T12:14:28.073Z,12.47
2023-02-17T12:16:06.436Z,12.28
2023-02-17T12:17:19.784Z,12.53
2023-02-17T12:18:40.469Z,12.26
2023-02-17T12:20:00.651Z,12.19
2023-02-17T12:21:14.167Z,12.12
2023-02-17T12:22:59.038Z,12.25
2023-02-17T12:24:11.746Z,12.35
2023-02-17T12:25:29.258Z,12.42
2023-02-17T12:26:47.837Z,12.46
2023-02-17T12:27:56.690Z,12.44
2023-02-17T12:29:21.878Z,12.49
2023-02-17T12:30:42.140Z,12.50
2023-02-17T12:32:00.850Z,12.42
2023-02-17T12:33:11.966Z,12.46
2023-02-17T12:34:44.690Z,12.68
2023-02-17T12:35:53.240Z,12.49
2023-02-17T12:37:00.522Z,12.54
2023-02-17T12:38:12.161Z,12.53
2023-02-17T12:39:48.639Z,12.56
2023-02-17T12:40:58.215Z,12.58
2023-02-17T12:42:07.425Z,12.62
2023-02-17T12:43:30.975Z,12.46
2023-02-17T12:45:02.749Z,12.51
2023-02-17T12:46:17.102Z,12.61
2023-02-17T12:47:30.376Z,12.55
2023-02-17T12:48:46.169Z,12.66
2023-02-17T12:49:51.094Z,12.56
2023-02-17T12:51:14.133Z,12.54
2023-02-17T12:52:32.762Z,12.79
2023-02-17T12:53:49.465Z,12.92
2023-02-17T12:54:55.747Z,12.98
2023-02-17T12:56:01.999Z,12.81
2023-02-17T12:57:10.402Z,13.03
2023-02-17T12:58:18.108Z,13.00
2023-02-17T12:59:29.355Z,13.05
2023-02-17T13:00:42.965Z,13.08
2023-02-17T13:01:57.756Z,13.16
2023-02-17T13:03:00.803Z,13.04
2023-02-17T13:04:03.191Z,12.91
2023-02-17T13:05:18.372Z,13.03
2023-02-17T13:06:31.087Z,13.24
2023-02-17T13:07:50.510Z,13.47
2023-02-17T13:09:06.325Z,13.51
2023-02-17T13:10:20.085Z,13.62
2023-02-17T13:11:34.774Z,13.72
2023-02-17T13:12:40.769Z,13.55
2023-02-17T13:13:43.010Z,13.64
2023-02-17T13:14:47.708Z,13.57
2023-02-17T13:16:11.174Z,13.59
2023-02-17T13:17:30.487Z,13.71
2023-02-17T13:18:36.391Z,13.63
2023-02-17T13:19:38.652Z,13.42
2023-02-17T13:20:54.409Z,13.65
2023-02-17T13:21:59.965Z,13.41
2023-02-17T13:23:08.944Z,13.37
2023-02-17T13:24:30.344Z,13.35
2023-02-17T13:25:37.124Z,13.24
2023-02-17T13:26:43.585Z,13.34
2023-02-17T13:27:46.480Z,13.46
2023-02-17T13:28:50.687Z,13.36
2023-02-17T13:30:06.408Z,13.20
2023-02-17T13:31:17.086Z,13.30
2023-02-17T13:32:28.824Z,13.46
2023-02-17T13:33:31.631Z,13.55
2023-02-17T13:34:37.729Z,13.41
2023-02-17T13:35:40.018Z,13.42
2023-02-17T13:36:42.404Z,13.25
2023-02-17T13:37:46.088Z,13.21
2023-02-17T13:38:55.929Z,13.14
2023-02-17T13:39:59.849Z,13.05
2023-02-17T13:41:06.443Z,13.15
2023-02-17T13:42:35.541Z,13.05
2023-02-17T13:43:42.764Z,12.96
2023-02-17T13:44:47.016Z,12.97
2023-02-17T13:45:59.893Z,12.90
2023-02-17T13:47:18.029Z,12.81
2023-02-17T13:48:24.782Z,12.85
2023-02-17T13:49:33.151Z,12.96
2023-02-17T13:50:38.599Z,13.23
2023-02-17T13:51:40.840Z,13.42
2023-02-17T13:52:43.813Z,13.28
2023-02-17T13:53:50.526Z,13.32
2023-02-17T13:54:56.675Z,13.30
2023-02-17T13:56:01.675Z,13.27
2023-02-17T13:57:03.879Z,13.32
2023-02-17T13:58:06.153Z,13.03
2023-02-17T13:59:11.126Z,12.80
2023-02-17T14:00:13.296Z,12.80
2023-02-17T14:01:20.571Z,12.82
2023-02-17T14:02:35.497Z,12.89
2023-02-17T14:03:46.190Z,12.75
2023-02-17T14:04:48.377Z,12.95
2023-02-17T14:06:02.049Z,13.02
2023-02-17T14:07:05.536Z,12.95
2023-02-17T14:08:18.969Z,12.82
2023-02-17T14:09:33.133Z,12.76
2023-02-17T14:10:36.330Z,12.64
2023-02-17T14:11:38.624Z,12.67
2023-02-17T14:12:40.992Z,12.84
2023-02-17T14:13:46.346Z,12.76
2023-02-17T14:14:48.764Z,12.63
2023-02-17T14:15:57.326Z,12.82
2023-02-17T14:17:05.654Z,12.85
2023-02-17T14:18:15.506Z,13.00
2023-02-17T14:19:19.613Z,13.04
2023-02-17T14:20:29.946Z,13.06
2023-02-17T14:21:32.534Z,13.17
2023-02-17T14:22:35.856Z,13.12
2023-02-17T14:23:52.066Z,13.07
2023-02-17T14:25:11.880Z,13.13
2023-02-17T14:26:26.422Z,13.07
2023-02-17T14:27:29.028Z,13.15
2023-02-17T14:28:31.252Z,13.00